Time;durP1;ratioP1;P1;durP2;ratioP2;P2;SDS_P1;SDS_P2;PMS_P1;PMS_P2;Temp;Humidity;BMP_temperature;BMP_pressure;BME280_temperature;BME280_humidity;BME280_pressure;Samples;Min_cycle;Max_cycle;Signal;HPM_P1;HPM_P2
2023/07/01 00:01:59;;;;;;;22.90;18.17;;;18.40;99.90;;;;;;5074541;28;20582;-84
2023/07/01 00:04:30;;;;;;;24.33;17.97;;;18.40;99.90;;;;;;5074789;28;20264;-84
2023/07/01 00:06:57;;;;;;;23.67;18.13;;;18.40;99.90;;;;;;5092847;28;20628;-86
2023/07/01 00:09:24;;;;;;;23.83;18.03;;;18.40;99.90;;;;;;5057415;28;20193;-87
2023/07/01 00:11:51;;;;;;;25.27;18.20;;;18.40;99.90;;;;;;5074419;28;20228;-85
2023/07/01 00:14:18;;;;;;;22.90;18.13;;;18.40;99.90;;;;;;5074455;28;20189;-85
2023/07/01 00:16:45;;;;;;;21.73;17.07;;;18.40;99.90;;;;;;5074471;28;20225;-83
2023/07/01 00:19:12;;;;;;;22.70;17.53;;;18.40;99.90;;;;;;5074714;28;20295;-85
2023/07/01 00:21:39;;;;;;;23.17;17.43;;;18.40;99.90;;;;;;5092600;28;20275;-87
2023/07/01 00:24:06;;;;;;;23.40;17.97;;;18.40;99.90;;;;;;5092758;28;20235;-86
2023/07/01 00:26:33;;;;;;;23.77;17.17;;;18.40;99.90;;;;;;5074314;28;20252;-84
2023/07/01 00:29:00;;;;;;;24.33;16.77;;;18.30;99.90;;;;;;5074258;28;20594;-86
2023/07/01 00:31:26;;;;;;;22.20;16.33;;;18.40;99.90;;;;;;5073970;28;20233;-85
2023/07/01 00:33:54;;;;;;;20.97;16.37;;;18.40;99.90;;;;;;5074115;28;21078;-84
2023/07/01 00:36:20;;;;;;;21.80;16.93;;;18.40;99.90;;;;;;5074302;28;20316;-88
2023/07/01 00:38:47;;;;;;;23.17;16.67;;;18.30;99.90;;;;;;5074222;28;20239;-86
2023/07/01 00:41:17;;;;;;;20.23;16.83;;;18.30;99.90;;;;;;5092719;28;20217;-85
2023/07/01 00:43:44;;;;;;;22.23;17.03;;;18.40;99.90;;;;;;5057870;28;20321;-85
2023/07/01 00:46:12;;;;;;;22.70;17.23;;;18.40;99.90;;;;;;5057473;28;20213;-85
2023/07/01 00:48:41;;;;;;;22.30;17.37;;;18.40;99.90;;;;;;5074134;28;20231;-85
2023/07/01 00:51:08;;;;;;;22.20;17.07;;;18.40;99.90;;;;;;5074007;28;20249;-86
2023/07/01 00:53:35;;;;;;;20.70;16.43;;;18.40;99.90;;;;;;5057266;28;20252;-86
2023/07/01 00:56:03;;;;;;;22.47;16.33;;;18.40;99.90;;;;;;5057217;28;20481;-87
2023/07/01 00:58:30;;;;;;;20.97;16.77;;;18.40;99.90;;;;;;5057488;28;20224;-84
2023/07/01 01:01:00;;;;;;;22.80;16.87;;;18.40;99.90;;;;;;5074253;28;20316;-86
2023/07/01 01:04:03;;;;;;;22.20;17.27;;;18.40;99.90;;;;;;5057376;28;20227;-85
2023/07/01 01:06:36;;;;;;;21.67;16.63;;;18.30;99.90;;;;;;5057306;28;20213;-85
2023/07/01 01:09:47;;;;;;;20.33;16.80;;;18.30;99.90;;;;;;5057565;28;20250;-85
2023/07/01 01:12:14;;;;;;;21.80;16.83;;;18.30;99.90;;;;;;5074177;28;20300;-85
2023/07/01 01:14:43;;;;;;;20.23;16.30;;;18.30;99.90;;;;;;5057266;28;20254;-84
2023/07/01 01:17:13;;;;;;;22.53;16.43;;;18.30;99.90;;;;;;5092035;28;20236;-85
2023/07/01 01:19:45;;;;;;;21.63;15.77;;;18.30;99.90;;;;;;5094209;28;20261;-84
2023/07/01 01:22:21;;;;;;;19.97;15.90;;;18.30;99.90;;;;;;5096085;28;20178;-84
2023/07/01 01:24:57;;;;;;;20.17;16.60;;;18.30;99.90;;;;;;5077912;28;20227;-84
2023/07/01 01:27:28;;;;;;;20.10;16.70;;;18.30;99.90;;;;;;5077619;28;20189;-83
2023/07/01 01:29:55;;;;;;;22.63;16.07;;;18.30;99.90;;;;;;5077898;28;20186;-82
2023/07/01 01:32:22;;;;;;;19.13;16.63;;;18.30;99.90;;;;;;5095783;28;20259;-83
2023/07/01 01:34:50;;;;;;;24.30;17.13;;;18.30;99.90;;;;;;5077427;28;20706;-83
2023/07/01 01:37:28;;;;;;;21.60;17.07;;;18.20;99.90;;;;;;5077365;28;20725;-85
2023/07/01 01:40:09;;;;;;;21.60;17.57;;;18.20;99.90;;;;;;5095649;28;20182;-84
2023/07/01 01:42:39;;;;;;;21.10;16.90;;;18.10;99.90;;;;;;5095872;28;20260;-85
2023/07/01 01:45:07;;;;;;;21.40;16.97;;;18.20;99.90;;;;;;5077385;28;20245;-85
2023/07/01 01:47:36;;;;;;;23.63;17.07;;;18.20;99.90;;;;;;5095875;28;20359;-83
2023/07/01 01:50:07;;;;;;;20.37;17.23;;;18.20;99.90;;;;;;5077673;28;20198;-85
2023/07/01 01:52:36;;;;;;;26.17;17.93;;;18.20;99.90;;;;;;5077285;28;20211;-84
2023/07/01 01:55:04;;;;;;;23.40;18.03;;;18.20;99.90;;;;;;5060746;28;20189;-84
2023/07/01 01:57:32;;;;;;;21.57;16.60;;;18.20;99.90;;;;;;5077560;28;20194;-83
2023/07/01 01:59:58;;;;;;;26.37;17.30;;;18.10;99.90;;;;;;5061548;28;20233;-83
2023/07/01 02:02:26;;;;;;;23.37;17.50;;;18.10;99.90;;;;;;5095689;28;20190;-84
2023/07/01 02:04:53;;;;;;;19.57;16.40;;;18.10;99.90;;;;;;5076984;28;20204;-83
2023/07/01 02:07:20;;;;;;;19.73;16.40;;;18.10;99.90;;;;;;5060744;28;20223;-83
2023/07/01 02:09:47;;;;;;;19.27;16.10;;;18.10;99.90;;;;;;5095422;28;20190;-83
2023/07/01 02:12:13;;;;;;;21.13;16.50;;;18.10;99.90;;;;;;5060572;28;20316;-85
2023/07/01 02:14:40;;;;;;;21.73;17.13;;;18.10;99.90;;;;;;5077562;28;20292;-83
2023/07/01 02:17:07;;;;;;;23.33;16.97;;;18.20;99.90;;;;;;5077141;28;20243;-83
2023/07/01 02:19:34;;;;;;;19.47;16.73;;;18.10;99.90;;;;;;5060673;28;20198;-82
2023/07/01 02:22:01;;;;;;;21.90;16.40;;;18.20;99.90;;;;;;5077273;28;20736;-83
2023/07/01 02:24:29;;;;;;;19.60;15.83;;;18.20;99.90;;;;;;5060659;28;20300;-83
2023/07/01 02:26:55;;;;;;;20.93;16.33;;;18.20;99.90;;;;;;5095088;28;20619;-83
2023/07/01 02:29:22;;;;;;;20.30;17.27;;;18.20;99.90;;;;;;5076906;28;20281;-83
2023/07/01 02:31:49;;;;;;;22.27;16.90;;;18.20;99.90;;;;;;5076667;28;20209;-84
2023/07/01 02:34:27;;;;;;;22.17;17.60;;;18.20;99.90;;;;;;5095198;28;20224;-82
2023/07/01 02:36:54;;;;;;;23.53;17.13;;;18.10;99.90;;;;;;5076968;28;20685;-84
2023/07/01 02:39:21;;;;;;;20.33;17.20;;;18.20;99.90;;;;;;5095071;28;20217;-82
2023/07/01 02:41:48;;;;;;;22.67;18.03;;;18.10;99.90;;;;;;5076859;28;20244;-84
2023/07/01 02:44:15;;;;;;;21.67;18.00;;;18.10;99.90;;;;;;5060003;28;20564;-84
2023/07/01 02:46:43;;;;;;;24.00;19.47;;;18.00;99.90;;;;;;5076926;28;20237;-83
2023/07/01 02:49:10;;;;;;;25.43;19.60;;;18.00;99.90;;;;;;5076996;28;20715;-84
2023/07/01 02:51:37;;;;;;;24.67;18.87;;;18.00;99.90;;;;;;5095016;28;20267;-84
2023/07/01 02:54:03;;;;;;;22.60;18.70;;;18.10;99.90;;;;;;5095116;28;20316;-83
2023/07/01 02:56:30;;;;;;;23.33;18.33;;;18.10;99.90;;;;;;5076816;28;20701;-84
2023/07/01 02:58:57;;;;;;;24.73;19.43;;;18.10;99.90;;;;;;5095003;28;20281;-84
2023/07/01 03:01:24;;;;;;;23.73;18.83;;;18.20;99.90;;;;;;5076650;28;20213;-84
2023/07/01 03:03:51;;;;;;;23.00;19.37;;;18.10;99.90;;;;;;5076141;28;20634;-83
2023/07/01 03:06:18;;;;;;;24.47;19.27;;;18.10;99.90;;;;;;5059709;28;20699;-82
2023/07/01 03:08:45;;;;;;;25.10;19.60;;;18.10;99.90;;;;;;5096228;28;20190;-83
2023/07/01 03:11:12;;;;;;;26.27;19.00;;;18.10;99.90;;;;;;5077333;28;20241;-83
2023/07/01 03:13:39;;;;;;;22.93;18.93;;;18.10;99.90;;;;;;5062718;28;20255;-84
2023/07/01 03:16:07;;;;;;;23.70;19.07;;;18.10;99.90;;;;;;5080627;28;20225;-83
2023/07/01 03:18:35;;;;;;;25.33;20.37;;;18.10;99.90;;;;;;5081076;28;20192;-82
2023/07/01 03:21:02;;;;;;;26.03;21.10;;;18.10;99.90;;;;;;5080248;28;20209;-82
2023/07/01 03:23:30;;;;;;;25.50;20.47;;;18.10;99.90;;;;;;5061373;28;20201;-82
2023/07/01 03:25:57;;;;;;;30.00;20.30;;;18.10;99.90;;;;;;5059252;28;20217;-83
2023/07/01 03:28:24;;;;;;;25.73;20.30;;;18.10;99.90;;;;;;5093844;28;20444;-84
2023/07/01 03:30:51;;;;;;;26.80;21.43;;;18.10;99.90;;;;;;5075440;28;20259;-83
2023/07/01 03:33:18;;;;;;;25.53;20.17;;;18.10;99.90;;;;;;5075592;28;20316;-83
2023/07/01 03:35:45;;;;;;;26.17;20.03;;;18.20;99.90;;;;;;5075493;28;20244;-83
2023/07/01 03:38:13;;;;;;;24.47;20.20;;;18.20;99.90;;;;;;5075546;28;20716;-83
2023/07/01 03:40:40;;;;;;;24.03;19.70;;;18.20;99.90;;;;;;5074861;28;20291;-84
2023/07/01 03:43:07;;;;;;;26.93;20.57;;;18.20;99.90;;;;;;5058156;28;20237;-84
2023/07/01 03:45:34;;;;;;;25.57;20.57;;;18.20;99.90;;;;;;5075157;28;20235;-83
2023/07/01 03:48:01;;;;;;;25.40;20.57;;;18.20;99.90;;;;;;5058184;28;20237;-84
2023/07/01 03:50:28;;;;;;;22.67;18.60;;;18.30;99.90;;;;;;5058245;28;20242;-83
2023/07/01 03:52:55;;;;;;;24.83;19.77;;;18.30;99.90;;;;;;5074811;28;20214;-83
2023/07/01 03:55:22;;;;;;;23.50;19.80;;;18.20;99.90;;;;;;5058230;28;20244;-82
2023/07/01 03:57:49;;;;;;;25.00;20.47;;;18.30;99.90;;;;;;5058444;28;20718;-83
2023/07/01 04:00:19;;;;;;;25.33;21.30;;;18.30;99.90;;;;;;5092788;28;20213;-83
2023/07/01 04:02:47;;;;;;;26.57;20.00;;;18.30;99.90;;;;;;5074948;28;20567;-83
2023/07/01 04:05:16;;;;;;;26.53;20.40;;;18.40;99.90;;;;;;5074766;28;20472;-84
2023/07/01 04:07:45;;;;;;;27.40;21.50;;;18.30;99.90;;;;;;5093039;28;20554;-83
2023/07/01 04:10:12;;;;;;;28.47;22.47;;;18.40;99.90;;;;;;5093136;28;20641;-83
2023/07/01 04:12:39;;;;;;;27.20;20.93;;;18.30;99.90;;;;;;5074729;28;20221;-83
2023/07/01 04:15:10;;;;;;;30.53;23.07;;;18.30;99.90;;;;;;5058063;28;20221;-84
2023/07/01 04:17:42;;;;;;;31.47;23.13;;;18.30;99.90;;;;;;5074897;28;20181;-83
2023/07/01 04:20:11;;;;;;;34.00;23.63;;;18.20;99.90;;;;;;5058379;28;20206;-82
2023/07/01 04:22:38;;;;;;;30.03;22.93;;;18.20;99.90;;;;;;5092850;28;20243;-84
2023/07/01 04:25:07;;;;;;;27.77;21.83;;;18.20;99.90;;;;;;5092756;28;21494;-83
2023/07/01 04:27:35;;;;;;;28.97;23.23;;;18.30;99.90;;;;;;5057929;28;20367;-82
2023/07/01 04:30:03;;;;;;;30.77;23.17;;;18.40;99.90;;;;;;5074322;28;20224;-82
2023/07/01 04:32:30;;;;;;;27.37;22.93;;;18.40;99.90;;;;;;5074352;28;20245;-83
2023/07/01 04:34:57;;;;;;;30.17;22.73;;;18.50;99.90;;;;;;5058026;28;20236;-82
2023/07/01 04:37:24;;;;;;;31.33;23.13;;;18.50;99.90;;;;;;5092492;28;20239;-83
2023/07/01 04:39:51;;;;;;;27.80;22.43;;;18.60;99.90;;;;;;5074431;28;20292;-83
2023/07/01 04:42:18;;;;;;;32.60;22.60;;;18.70;99.90;;;;;;5057620;28;20280;-83
2023/07/01 04:44:53;;;;;;;29.80;22.93;;;18.90;99.90;;;;;;5074533;28;20322;-83
2023/07/01 04:47:22;;;;;;;26.60;21.67;;;18.90;99.90;;;;;;5074451;28;20229;-83
2023/07/01 04:49:52;;;;;;;29.60;23.10;;;19.00;99.90;;;;;;5074405;28;20198;-84
2023/07/01 04:52:24;;;;;;;29.30;22.40;;;18.80;99.90;;;;;;5074608;28;20177;-82
2023/07/01 04:54:52;;;;;;;29.87;21.83;;;18.90;99.90;;;;;;5076161;28;20645;-82
2023/07/01 04:57:19;;;;;;;26.67;21.63;;;18.80;99.90;;;;;;5078522;28;20250;-83
2023/07/01 04:59:46;;;;;;;29.77;23.03;;;18.80;99.90;;;;;;5078217;28;20193;-83
2023/07/01 05:02:13;;;;;;;31.50;23.13;;;18.80;99.90;;;;;;5061613;28;20200;-83
2023/07/01 05:04:40;;;;;;;29.67;23.80;;;18.80;99.90;;;;;;5078899;28;20202;-83
2023/07/01 05:07:07;;;;;;;29.27;23.37;;;18.70;99.90;;;;;;5061516;28;20221;-83
2023/07/01 05:09:34;;;;;;;33.53;24.30;;;18.80;99.90;;;;;;5078251;28;20296;-83
2023/07/01 05:12:02;;;;;;;31.33;23.33;;;18.80;99.90;;;;;;5078141;28;20684;-84
2023/07/01 05:14:29;;;;;;;28.87;22.10;;;18.80;99.90;;;;;;5078212;28;20316;-83
2023/07/01 05:16:57;;;;;;;30.00;22.60;;;18.90;99.90;;;;;;5096181;28;20216;-83
2023/07/01 05:19:24;;;;;;;27.33;22.30;;;19.10;99.90;;;;;;5061520;28;20204;-82
2023/07/01 05:21:52;;;;;;;30.43;22.60;;;19.20;99.90;;;;;;5077751;28;20275;-83
2023/07/01 05:24:19;;;;;;;29.03;22.60;;;19.30;99.90;;;;;;5078136;28;20197;-83
2023/07/01 05:26:48;;;;;;;32.47;23.30;;;19.30;99.90;;;;;;5061532;28;20217;-82
2023/07/01 05:29:15;;;;;;;29.27;21.53;;;19.30;99.90;;;;;;5077768;28;20201;-82
2023/07/01 05:31:42;;;;;;;26.13;21.70;;;19.50;99.90;;;;;;5077471;28;20213;-82
2023/07/01 05:34:09;;;;;;;26.23;20.67;;;19.50;99.90;;;;;;5077525;28;20225;-83
2023/07/01 05:36:37;;;;;;;24.83;20.40;;;19.50;99.90;;;;;;5095900;28;20561;-83
2023/07/01 05:39:04;;;;;;;26.70;19.57;;;19.50;99.90;;;;;;5061128;28;20200;-82
2023/07/01 05:41:31;;;;;;;23.60;18.33;;;19.60;99.90;;;;;;5095805;28;20701;-83
2023/07/01 05:43:58;;;;;;;29.47;20.10;;;19.50;99.90;;;;;;5096118;28;20197;-82
2023/07/01 05:46:29;;;;;;;26.73;19.93;;;19.50;99.90;;;;;;5077053;28;20212;-82
2023/07/01 05:48:56;;;;;;;26.83;18.93;;;19.40;99.90;;;;;;5094547;28;20619;-83
2023/07/01 05:51:23;;;;;;;28.67;19.93;;;19.40;99.90;;;;;;5059382;28;20693;-83
2023/07/01 05:53:50;;;;;;;26.07;18.87;;;19.40;99.90;;;;;;5075769;28;20221;-83
2023/07/01 05:56:17;;;;;;;26.23;19.27;;;19.40;99.90;;;;;;5075570;28;20253;-84
2023/07/01 05:58:43;;;;;;;24.93;18.83;;;19.50;99.90;;;;;;5059253;28;20231;-84
2023/07/01 06:01:10;;;;;;;22.30;18.90;;;19.60;99.90;;;;;;5075720;28;20240;-84
2023/07/01 06:03:37;;;;;;;25.57;19.00;;;19.50;99.90;;;;;;5094251;28;20645;-84
2023/07/01 06:06:04;;;;;;;23.00;18.27;;;19.50;99.90;;;;;;5058928;28;20217;-86
2023/07/01 06:08:31;;;;;;;25.40;18.53;;;19.60;99.90;;;;;;5059424;28;20194;-86
2023/07/01 06:10:58;;;;;;;21.83;17.17;;;19.80;99.90;;;;;;5075804;28;20645;-86
2023/07/01 06:13:25;;;;;;;20.67;15.27;;;19.90;99.90;;;;;;5075319;28;20226;-86
2023/07/01 06:15:52;;;;;;;19.93;14.70;;;20.00;99.90;;;;;;5058937;28;20316;-86
2023/07/01 06:18:19;;;;;;;18.10;12.63;;;20.00;99.90;;;;;;5095265;28;20197;-87
2023/07/01 06:20:46;;;;;;;18.97;13.77;;;20.10;99.90;;;;;;5094503;28;20217;-86
2023/07/01 06:23:16;;;;;;;16.07;12.03;;;20.20;99.90;;;;;;5058828;28;20258;-86
2023/07/01 06:25:43;;;;;;;26.23;13.17;;;20.20;99.90;;;;;;5058726;28;20213;-85
2023/07/01 06:28:10;;;;;;;17.27;12.60;;;20.40;99.90;;;;;;5075420;28;20201;-87
2023/07/01 06:30:37;;;;;;;17.60;12.43;;;20.30;99.90;;;;;;5058698;28;20217;-86
2023/07/01 06:33:06;;;;;;;17.93;11.77;;;20.20;99.90;;;;;;5075228;28;20232;-86
2023/07/01 06:35:34;;;;;;;15.33;11.83;;;20.20;99.90;;;;;;5075112;28;20213;-86
2023/07/01 06:38:01;;;;;;;14.43;11.63;;;20.30;99.90;;;;;;5075287;28;20193;-85
2023/07/01 06:40:28;;;;;;;16.13;10.97;;;20.30;99.90;;;;;;5075039;28;20233;-87
2023/07/01 06:42:55;;;;;;;17.23;12.10;;;20.30;99.90;;;;;;5075202;28;20281;-86
2023/07/01 06:45:22;;;;;;;16.33;11.77;;;20.20;99.90;;;;;;5075119;28;20260;-86
2023/07/01 06:47:49;;;;;;;15.60;11.93;;;20.00;99.90;;;;;;5020504;28;1093097;-86
2023/07/01 06:50:16;;;;;;;14.43;11.17;;;20.10;99.90;;;;;;5094021;28;20205;-86
2023/07/01 06:52:43;;;;;;;15.13;11.40;;;20.20;99.90;;;;;;5075816;28;20225;-85
2023/07/01 06:55:10;;;;;;;16.47;12.17;;;20.20;99.90;;;;;;5094015;28;20298;-85
2023/07/01 06:57:36;;;;;;;17.40;12.50;;;20.20;99.90;;;;;;5076547;28;20186;-86
2023/07/01 07:00:04;;;;;;;18.93;12.97;;;20.20;99.90;;;;;;5076095;28;20190;-85
2023/07/01 07:02:31;;;;;;;16.50;12.50;;;20.10;99.90;;;;;;5076322;28;20200;-86
2023/07/01 07:04:58;;;;;;;19.37;12.57;;;20.10;99.90;;;;;;5059147;28;20273;-85
2023/07/01 07:07:25;;;;;;;19.23;12.67;;;20.40;99.90;;;;;;5075932;28;20709;-87
2023/07/01 07:09:52;;;;;;;16.70;11.47;;;20.30;99.90;;;;;;5058815;28;20284;-85
2023/07/01 07:12:19;;;;;;;18.67;11.97;;;20.30;99.90;;;;;;5058808;28;20225;-86
2023/07/01 07:14:46;;;;;;;16.93;11.87;;;20.20;99.90;;;;;;5093577;28;20236;-84
2023/07/01 07:17:13;;;;;;;15.37;10.80;;;20.20;99.90;;;;;;5058128;28;20657;-86
2023/07/01 07:19:40;;;;;;;15.70;11.00;;;20.40;99.90;;;;;;5075533;28;20292;-85
2023/07/01 07:22:07;;;;;;;15.30;10.47;;;20.70;99.90;;;;;;5058996;28;20266;-85
2023/07/01 07:24:34;;;;;;;17.53;10.90;;;21.00;99.90;;;;;;5075789;28;20191;-85
2023/07/01 07:27:01;;;;;;;14.67;10.20;;;20.90;99.90;;;;;;5075577;28;20762;-85
2023/07/01 07:29:30;;;;;;;15.33;10.07;;;21.00;99.90;;;;;;5075520;28;20220;-86
2023/07/01 07:31:57;;;;;;;13.43;9.47;;;21.10;99.90;;;;;;5075392;28;20209;-85
2023/07/01 07:34:24;;;;;;;14.27;8.97;;;21.30;99.90;;;;;;5074943;28;20255;-86
2023/07/01 07:36:51;;;;;;;12.43;8.33;;;21.20;99.90;;;;;;5074955;28;20239;-85
2023/07/01 07:39:18;;;;;;;12.73;8.70;;;21.20;99.90;;;;;;5075379;28;20213;-86
2023/07/01 07:41:45;;;;;;;11.57;7.67;;;21.40;99.90;;;;;;5093116;28;20228;-86
2023/07/01 07:44:12;;;;;;;11.43;8.40;;;21.60;99.90;;;;;;5093418;28;20722;-85
2023/07/01 07:46:39;;;;;;;12.17;8.57;;;21.70;99.90;;;;;;5074512;28;20265;-85
2023/07/01 07:49:07;;;;;;;13.03;8.63;;;21.70;99.90;;;;;;5093086;28;20525;-86
2023/07/01 07:51:34;;;;;;;17.37;8.90;;;21.90;99.90;;;;;;5093128;28;20311;-84
2023/07/01 07:54:00;;;;;;;13.30;8.27;;;21.80;99.90;;;;;;5074882;28;20240;-84
2023/07/01 07:56:28;;;;;;;17.50;9.43;;;21.60;99.90;;;;;;5092721;28;20198;-85
2023/07/01 07:58:55;;;;;;;15.63;9.90;;;21.40;99.90;;;;;;5074448;28;20251;-85
2023/07/01 08:01:22;;;;;;;13.33;8.70;;;21.40;99.90;;;;;;5074581;28;20555;-85
2023/07/01 08:03:49;;;;;;;17.87;9.07;;;21.30;99.90;;;;;;5058030;28;20225;-86
2023/07/01 08:06:17;;;;;;;19.57;10.03;;;21.30;99.90;;;;;;5074931;28;20213;-85
2023/07/01 08:08:44;;;;;;;16.57;10.17;;;20.90;99.90;;;;;;5075037;28;20654;-85
2023/07/01 08:11:11;;;;;;;16.60;9.67;;;20.70;99.90;;;;;;5058102;28;20479;-85
2023/07/01 08:13:38;;;;;;;19.07;10.13;;;20.80;99.90;;;;;;5092924;28;20681;-85
2023/07/01 08:16:05;;;;;;;16.67;10.43;;;20.90;99.90;;;;;;5092840;28;20213;-86
2023/07/01 08:18:32;;;;;;;14.87;9.37;;;20.90;99.90;;;;;;5074337;28;20213;-85
2023/07/01 08:20:59;;;;;;;15.67;10.30;;;21.00;99.90;;;;;;5092660;28;20591;-86
2023/07/01 08:23:26;;;;;;;15.50;11.07;;;21.10;99.90;;;;;;5092588;28;20501;-85
2023/07/01 08:25:53;;;;;;;15.67;10.10;;;21.10;99.90;;;;;;5057641;28;20213;-82
2023/07/01 08:28:20;;;;;;;15.87;10.60;;;21.10;99.90;;;;;;5092285;28;20375;-85
2023/07/01 08:30:47;;;;;;;17.30;10.03;;;21.20;99.90;;;;;;5074172;28;20703;-84
2023/07/01 08:33:15;;;;;;;16.57;11.07;;;21.20;99.90;;;;;;5074130;28;20352;-83
2023/07/01 08:35:42;;;;;;;18.50;11.40;;;21.40;99.90;;;;;;5074436;28;20290;-85
2023/07/01 08:38:09;;;;;;;17.67;11.10;;;21.60;99.90;;;;;;5074769;28;20657;-87
2023/07/01 08:40:36;;;;;;;17.37;10.83;;;21.50;99.90;;;;;;5057935;28;20209;-87
2023/07/01 08:43:05;;;;;;;17.67;11.33;;;21.50;99.90;;;;;;5092651;28;20595;-85
2023/07/01 08:45:33;;;;;;;18.67;11.17;;;21.70;99.90;;;;;;5057449;28;20245;-85
2023/07/01 08:48:00;;;;;;;17.77;11.30;;;22.00;99.90;;;;;;5092691;28;20225;-86
2023/07/01 08:50:46;;;;;;;18.33;11.80;;;22.00;99.90;;;;;;5074318;28;20685;-86
2023/07/01 08:53:16;;;;;;;19.90;11.90;;;22.30;99.90;;;;;;5093116;28;20625;-83
2023/07/01 08:55:44;;;;;;;19.00;11.23;;;22.70;99.90;;;;;;5074665;28;20237;-83
2023/07/01 08:58:13;;;;;;;20.10;11.27;;;23.20;99.90;;;;;;5074401;28;20296;-82
2023/07/01 09:00:40;;;;;;;19.90;11.37;;;23.70;99.90;;;;;;5057840;28;20608;-83
2023/07/01 09:03:07;;;;;;;20.77;11.93;;;23.80;99.90;;;;;;5075495;28;20251;-81
2023/07/01 09:05:34;;;;;;;19.70;12.37;;;23.80;99.90;;;;;;5058524;28;20300;-82
2023/07/01 09:08:02;;;;;;;20.48;12.27;;;23.70;99.90;;;;;;5073982;28;20284;-84
2023/07/01 09:10:29;;;;;;;19.93;12.10;;;23.60;99.90;;;;;;5058965;28;20308;-82
2023/07/01 09:13:08;;;;;;;18.60;11.53;;;23.30;99.90;;;;;;5075464;28;20189;-85
2023/07/01 09:15:46;;;;;;;19.30;12.47;;;23.20;99.90;;;;;;5092163;28;20753;-84
2023/07/01 09:18:28;;;;;;;20.50;12.53;;;22.90;99.90;;;;;;5057427;28;20683;-84
2023/07/01 09:20:57;;;;;;;19.43;12.30;;;23.10;99.90;;;;;;5091947;28;20214;-84
2023/07/01 09:23:30;;;;;;;22.50;12.20;;;22.70;99.90;;;;;;5091886;28;20193;-85
2023/07/01 09:26:07;;;;;;;18.40;11.93;;;23.00;99.90;;;;;;5073585;28;20226;-84
2023/07/01 09:28:35;;;;;;;17.17;11.17;;;23.40;99.90;;;;;;5057659;28;20193;-84
2023/07/01 09:31:13;;;;;;;19.47;12.50;;;23.30;99.90;;;;;;5057014;28;20619;-84
2023/07/01 09:33:55;;;;;;;18.83;11.27;;;23.10;99.90;;;;;;5073671;28;20676;-82
2023/07/01 09:36:26;;;;;;;23.60;11.02;;;23.30;99.90;;;;;;5056997;28;20693;-83
2023/07/01 09:38:55;;;;;;;17.38;12.10;;;23.40;99.90;;;;;;5073625;28;20209;-83
2023/07/01 09:41:26;;;;;;;18.47;11.60;;;23.30;99.90;;;;;;5076437;28;20209;-83
2023/07/01 09:43:58;;;;;;;19.07;11.50;;;23.00;99.90;;;;;;5077514;28;20434;-83
2023/07/01 09:46:41;;;;;;;17.37;11.73;;;23.30;99.90;;;;;;5077291;28;20210;-82
2023/07/01 09:49:08;;;;;;;19.63;12.33;;;22.90;99.90;;;;;;5060603;28;20242;-84
2023/07/01 09:51:48;;;;;;;20.33;12.13;;;22.70;99.90;;;;;;5060551;28;20304;-85
2023/07/01 09:54:30;;;;;;;19.83;11.93;;;22.70;99.90;;;;;;5077439;28;20221;-86
2023/07/01 09:56:59;;;;;;;19.10;12.30;;;22.90;99.90;;;;;;5061088;28;20259;-89
2023/07/01 09:59:27;;;;;;;19.75;12.40;;;23.30;99.90;;;;;;5077643;28;20239;-88
2023/07/01 10:01:57;;;;;;;20.33;11.98;;;24.10;99.90;;;;;;5077469;28;20317;-87
2023/07/01 10:04:28;;;;;;;19.70;12.70;;;24.50;99.90;;;;;;5077386;28;20642;-87
2023/07/01 10:06:56;;;;;;;16.92;11.32;;;24.50;99.90;;;;;;5095619;28;20677;-87
2023/07/01 10:09:26;;;;;;;17.60;12.10;;;24.80;99.90;;;;;;5077056;28;20201;-86
2023/07/01 10:11:57;;;;;;;18.65;12.02;;;25.20;99.90;;;;;;5077072;28;20305;-87
2023/07/01 10:14:26;;;;;;;18.23;11.18;;;25.30;99.90;;;;;;5076666;28;20217;-87
2023/07/01 10:16:54;;;;;;;19.17;11.45;;;25.40;99.90;;;;;;5077251;28;20217;-86
2023/07/01 10:19:32;;;;;;;16.77;11.35;;;25.70;99.90;;;;;;5060463;28;20645;-86
2023/07/01 10:22:22;;;;;;;18.90;11.98;;;25.50;99.90;;;;;;5060646;28;20224;-86
2023/07/01 10:25:01;;;;;;;17.67;11.65;;;25.30;99.90;;;;;;5060560;28;20220;-88
2023/07/01 10:27:40;;;;;;;15.23;10.40;;;25.30;99.90;;;;;;5076972;28;20277;-88
2023/07/01 10:30:09;;;;;;;15.35;10.45;;;25.60;99.90;;;;;;5076696;28;20223;-87
2023/07/01 10:32:36;;;;;;;16.30;10.73;;;26.00;99.90;;;;;;5076890;28;20202;-87
2023/07/01 10:35:06;;;;;;;15.00;9.95;;;25.20;99.90;;;;;;5076689;28;20225;-87
2023/07/01 10:37:34;;;;;;;16.02;9.88;;;26.10;99.90;;;;;;5076600;28;20334;-86
2023/07/01 10:40:07;;;;;;;14.30;9.57;;;27.00;99.90;;;;;;5060060;28;20190;-87
2023/07/01 10:42:36;;;;;;;12.57;8.85;;;27.50;99.90;;;;;;5059783;28;20233;-88
2023/07/01 10:45:12;;;;;;;14.10;9.95;;;28.30;99.90;;;;;;5059484;28;20212;-88
2023/07/01 10:47:49;;;;;;;17.13;10.73;;;28.70;99.90;;;;;;5094243;28;20233;-88
2023/07/01 10:50:17;;;;;;;16.05;10.68;;;28.60;99.90;;;;;;5059960;28;20726;-87
2023/07/01 10:52:57;;;;;;;12.88;9.32;;;28.00;99.90;;;;;;5058724;28;20781;-87
2023/07/01 10:55:49;;;;;;;13.80;9.77;;;27.50;99.90;;;;;;5059420;28;20225;-87
2023/07/01 10:58:23;;;;;;;15.98;10.20;;;26.20;99.90;;;;;;5077017;28;20194;-86
2023/07/01 11:00:59;;;;;;;15.85;10.05;;;26.50;99.90;;;;;;5076605;28;20217;-87
2023/07/01 11:03:32;;;;;;;15.23;9.75;;;27.20;99.90;;;;;;5094293;28;20364;-88
2023/07/01 11:06:02;;;;;;;14.55;10.05;;;28.00;99.90;;;;;;5076815;28;20209;-88
2023/07/01 11:08:32;;;;;;;15.10;9.40;;;28.20;99.90;;;;;;5059462;28;20274;-88
2023/07/01 11:10:59;;;;;;;15.40;10.18;;;28.60;99.90;;;;;;5059547;28;20214;-88
2023/07/01 11:13:26;;;;;;;14.45;10.10;;;29.20;99.90;;;;;;5076334;28;20197;-88
2023/07/01 11:16:07;;;;;;;15.30;10.25;;;28.70;99.90;;;;;;5093670;28;20213;-88
2023/07/01 11:18:46;;;;;;;16.13;10.27;;;28.40;99.90;;;;;;5075891;28;20193;-87
2023/07/01 11:21:17;;;;;;;14.55;9.38;;;28.10;99.90;;;;;;5075842;28;20561;-88
2023/07/01 11:23:58;;;;;;;14.38;9.70;;;28.50;99.90;;;;;;5093913;28;20261;-87
2023/07/01 11:26:37;;;;;;;14.75;9.90;;;28.90;99.90;;;;;;5093932;28;20209;-88
2023/07/01 11:29:18;;;;;;;17.67;9.95;;;29.00;99.90;;;;;;5094010;28;20594;-88
2023/07/01 11:31:45;;;;;;;17.88;10.05;;;28.60;99.90;;;;;;5075599;28;20274;-87
2023/07/01 11:34:17;;;;;;;15.77;9.82;;;29.40;99.90;;;;;;5093701;28;20189;-87
2023/07/01 11:36:45;;;;;;;16.35;9.77;;;29.90;99.90;;;;;;5059466;28;20246;-86
2023/07/01 11:39:19;;;;;;;14.27;9.98;;;29.80;99.90;;;;;;5075758;28;20194;-86
2023/07/01 11:41:49;;;;;;;16.60;10.48;;;29.10;99.90;;;;;;5093446;28;20210;-87
2023/07/01 11:44:32;;;;;;;14.23;9.43;;;28.70;99.90;;;;;;5075635;28;20193;-85
2023/07/01 11:46:59;;;;;;;14.35;10.13;;;28.70;99.90;;;;;;5075504;28;20237;-85
2023/07/01 11:49:30;;;;;;;15.20;9.95;;;28.90;99.90;;;;;;5093524;28;20181;-87
2023/07/01 11:52:06;;;;;;;16.85;10.77;;;28.70;99.90;;;;;;5058915;28;20324;-84
2023/07/01 11:54:39;;;;;;;16.85;9.82;;;29.20;99.90;;;;;;5074796;28;20209;-82
2023/07/01 11:57:14;;;;;;;15.02;9.60;;;29.30;99.90;;;;;;5058522;28;20224;-86
2023/07/01 11:59:46;;;;;;;15.93;10.15;;;29.60;99.90;;;;;;5074825;28;20205;-86
2023/07/01 12:02:15;;;;;;;18.50;10.13;;;29.90;99.90;;;;;;5093606;28;20200;-85
2023/07/01 12:04:42;;;;;;;15.95;10.45;;;29.70;99.90;;;;;;5058131;28;20205;-87
2023/07/01 12:07:18;;;;;;;15.60;10.10;;;29.00;99.90;;;;;;5058890;28;20213;-86
2023/07/01 12:09:45;;;;;;;14.75;10.23;;;29.30;99.90;;;;;;5093242;28;20641;-88
2023/07/01 12:12:16;;;;;;;15.50;10.43;;;29.20;99.90;;;;;;5075300;28;20246;-86
2023/07/01 12:14:45;;;;;;;17.33;10.00;;;28.40;99.90;;;;;;5093884;28;20237;-84
2023/07/01 12:17:28;;;;;;;14.70;9.95;;;28.20;99.90;;;;;;5076434;28;20194;-84
2023/07/01 12:19:58;;;;;;;17.13;10.65;;;28.20;99.90;;;;;;5077714;28;20264;-88
2023/07/01 12:22:26;;;;;;;21.48;10.32;;;27.50;99.90;;;;;;5077862;28;20189;-86
2023/07/01 12:24:54;;;;;;;15.70;9.80;;;28.10;99.90;;;;;;5079152;28;20200;-85
2023/07/01 12:27:22;;;;;;;15.43;9.70;;;27.90;99.90;;;;;;5077526;28;20227;-85
2023/07/01 12:29:48;;;;;;;15.48;10.02;;;28.50;99.90;;;;;;5093956;28;20189;-87
2023/07/01 12:32:16;;;;;;;15.40;10.27;;;29.20;99.90;;;;;;5077823;28;20189;-87
2023/07/01 12:34:43;;;;;;;15.57;10.30;;;29.30;99.90;;;;;;5058076;28;20554;-86
2023/07/01 12:37:10;;;;;;;13.98;9.73;;;28.60;99.90;;;;;;5076592;28;20300;-86
2023/07/01 12:39:37;;;;;;;16.70;9.82;;;29.00;99.90;;;;;;5074669;28;20224;-86